To NAV CANADA Home Page Login to a new session Search on AWWS site Feedback and Comments Disclaimer Vers la page française équivalente Tips FAQ What's new on the site To the Forecasts and Observations / NOTAM section To "File a Flight Plan" website Publications and other links Update of the User's profile FIC Telephone Numbers My Weather Data Folder Route Weather Data Regional Weather Data Local Weather Data To the Forecasts and Observations / NOTAM section
Request Generated 10/18/2017 at 03:44:33 UTC . Weather information available at that time is displayed.

METAR/TAF

TORONTO/BUTTONVILLE MUNICIPAL/ON    

METAR CYKZ 180300Z 24005KT 15SM SKC 13/07 A3012 RMK SLP203=
METAR CYKZ 180200Z 23006KT 15SM FEW260 14/08 A3011 RMK CI1 CI TR
SLP201=
METAR CYKZ 180100Z 24009G15KT 15SM SCT260 15/08 A3009 RMK CI3 SLP195=

TAF CYKZ 172343Z 1800/1812 23010G20KT P6SM SCT250
BECMG 1800/1802 26008KT
FM180600 26005KT P6SM SKC PROB30 1806/1812 1SM BR
RMK NXT FCST BY 180600Z=
Your time UTC time
Weather data provided by Environment Canada and NAV CANADA